PTKR  Koror, Palau, NWS Office Airport

Add Bookmark

Federated States of Micronesia

Status
Operational
Latitude Longitude
7° 19' 48" N 134° 28' 47" E
7.330000 134.480000
Local (DST + 9) UTC (GMT + 9)
Nov 21, 2014 11:08 Nov 21, 2014 02:08
Sunrise-Sunset Local UTC
Begin Civil Twilight 05:31 20:31
Sunrise 05:53 20:53
Sunset 05:41 08:41
End Civil Twilight 06:04 09:04

Current Weather

METAR Observed MVFR
PTKR 210151Z 04006KT 15SM BKN018CB OVC340 30/25 A2985 Fri, Nov 21, 2014 @ 01:51 UTC
(17 Minutes ago)
Marginal Visual Flight Rules
Wind Visibility Clouds Conditions
040° at 6 knots (11 kph) 24000 meters
  • Broken at 1,800' AGL
  • Overcast at 34,000' AGL
  • No significant weather
Temperatures Readings Precipitation
Current Temp 30°C (86°F)
Dewpoint 25°C (77°F)
Heat Index 36°C (97°F)
Humidity 75%
Altimeter 29.85"Hg
Sea Level Pressure 1010.9mb
Field Elevation 98.43'
None Recorded

Additional weather within a 92.6km radius of PTKR

Map ICAO Location
PTRO 8.1km N (360°)

24 Hour Weather History

Loading
-

24 Hour Weather Graphs

Loading
-

CheckWX.com is intended as a tool to help pilots better visualize weather data. It is not intended as a substitute for an official weather briefing obtained from a Flight Service Station. CheckWX.com does not meet the FAA requirements for an official pre-flight weather briefing. Therefore, it's important that pilots still call and obtain an official FSS pre-flight weather briefing.